Tioga, West Virginia
Current Conditions -  °F | °C
As of 6:15 AM on Thursday 18 Dec 2014 (Local Time) from KLWB Reporting Station
Clear Clear  
Wind Chill: 23°   Ceiling: Unl
Heat Index: 28°   Visibility: 10mi
Dew Point: 20°   Wind: 5mph
Humidity: 73%   Direction: 260°W
Pressure: 30.12"   Gusts: NA
Location:  38.42°N, 80.66°W
Report Text: KLWB 181115Z AUTO 26004KT 10SM CLR M02/M06 A3012 RMK AO2 T10231065
Loading
Personal Weather Stations






























Interactive Weather Map New forecast layout! Learn more

10-Day Weather Forecast

Advertisements
Track Severe Weather on mobile